createdAt,value
2019-02-09T00:00:44.887Z,6.84
2019-02-09T00:01:44.820Z,6.87
2019-02-09T00:02:44.760Z,6.84
2019-02-09T00:03:44.699Z,6.84
2019-02-09T00:04:44.637Z,6.84
2019-02-09T00:05:44.578Z,6.87
2019-02-09T00:06:44.514Z,6.80
2019-02-09T00:07:44.460Z,6.90
2019-02-09T00:08:44.391Z,6.81
2019-02-09T00:09:44.332Z,6.84
2019-02-09T00:10:44.270Z,6.80
2019-02-09T00:11:44.208Z,6.83
2019-02-09T00:12:44.149Z,6.81
2019-02-09T00:13:44.086Z,6.89
2019-02-09T00:14:44.023Z,6.86
2019-02-09T00:15:43.962Z,6.81
2019-02-09T00:16:43.902Z,6.79
2019-02-09T00:17:43.839Z,6.83
2019-02-09T00:18:43.778Z,6.87
2019-02-09T00:19:43.717Z,6.81
2019-02-09T00:20:43.657Z,6.76
2019-02-09T00:21:43.596Z,6.80
2019-02-09T00:22:43.538Z,6.83
2019-02-09T00:23:43.473Z,6.76
2019-02-09T00:24:43.413Z,6.81
2019-02-09T00:25:43.352Z,6.79
2019-02-09T00:26:43.289Z,6.84
2019-02-09T00:27:43.232Z,6.77
2019-02-09T00:28:43.168Z,6.79
2019-02-09T00:29:46.259Z,6.84
2019-02-09T00:30:43.044Z,6.77
2019-02-09T00:31:42.981Z,6.77
2019-02-09T00:32:42.921Z,6.80
2019-02-09T00:33:42.860Z,6.80
2019-02-09T00:34:42.797Z,6.83
2019-02-09T00:35:42.739Z,6.79
2019-02-09T00:36:42.689Z,6.77
2019-02-09T00:37:42.613Z,6.87
2019-02-09T00:38:42.553Z,6.79
2019-02-09T00:39:42.492Z,6.79
2019-02-09T00:40:42.430Z,6.81
2019-02-09T00:41:42.373Z,6.81
2019-02-09T00:42:42.308Z,6.81
2019-02-09T00:43:42.246Z,6.79
2019-02-09T00:44:42.192Z,6.80
2019-02-09T00:45:42.124Z,6.76
2019-02-09T00:46:42.064Z,6.79
2019-02-09T00:47:42.003Z,6.83
2019-02-09T00:48:41.940Z,6.83
2019-02-09T00:49:41.878Z,6.80
2019-02-09T00:50:41.817Z,6.76
2019-02-09T00:51:41.756Z,6.81
2019-02-09T00:52:41.695Z,6.83
2019-02-09T00:53:41.633Z,6.77
2019-02-09T00:54:41.571Z,6.81
2019-02-09T00:55:41.510Z,6.77
2019-02-09T00:56:41.450Z,6.80
2019-02-09T00:57:41.389Z,6.79
2019-02-09T00:58:41.329Z,6.84
2019-02-09T00:59:41.266Z,6.81
2019-02-09T01:00:41.203Z,6.79
2019-02-09T01:01:41.142Z,6.79
2019-02-09T01:02:41.082Z,6.81
2019-02-09T01:03:41.019Z,6.83
2019-02-09T01:04:40.959Z,6.81
2019-02-09T01:05:40.897Z,6.79
2019-02-09T01:06:40.835Z,6.79
2019-02-09T01:07:40.775Z,6.76
2019-02-09T01:08:40.720Z,6.80
2019-02-09T01:09:40.651Z,6.79
2019-02-09T01:10:40.591Z,6.79
2019-02-09T01:11:40.529Z,6.83
2019-02-09T01:12:40.469Z,6.79
2019-02-09T01:13:40.406Z,6.84
2019-02-09T01:14:40.349Z,6.83
2019-02-09T01:15:40.284Z,6.84
2019-02-09T01:16:40.223Z,6.80
2019-02-09T01:17:40.160Z,6.79
2019-02-09T01:18:40.100Z,6.77
2019-02-09T01:19:40.040Z,6.76
2019-02-09T01:20:39.978Z,6.81
2019-02-09T01:21:39.916Z,6.84
2019-02-09T01:22:39.855Z,6.79
2019-02-09T01:23:39.793Z,6.83
2019-02-09T01:24:39.732Z,6.79
2019-02-09T01:25:39.670Z,6.80
2019-02-09T01:26:39.608Z,6.79
2019-02-09T01:27:39.547Z,6.81
2019-02-09T01:28:39.486Z,6.79
2019-02-09T01:29:39.428Z,6.77
2019-02-09T01:30:39.362Z,6.81
2019-02-09T01:31:39.302Z,6.77
2019-02-09T01:32:39.241Z,6.79
2019-02-09T01:33:39.179Z,6.84
2019-02-09T01:34:39.118Z,6.80
2019-02-09T01:35:39.059Z,6.76
2019-02-09T01:36:38.995Z,6.79
2019-02-09T01:37:38.934Z,6.73
2019-02-09T01:38:38.873Z,6.84
2019-02-09T01:39:38.812Z,6.76
2019-02-09T01:40:38.756Z,6.81
2019-02-09T01:41:38.692Z,6.81
2019-02-09T01:42:38.627Z,6.77
2019-02-09T01:43:38.565Z,6.79
2019-02-09T01:44:38.504Z,6.83
2019-02-09T01:45:38.445Z,6.79
2019-02-09T01:46:38.386Z,6.79
2019-02-09T01:47:38.320Z,6.80
2019-02-09T01:48:38.258Z,6.76
2019-02-09T01:49:38.196Z,6.76
2019-02-09T01:50:38.140Z,6.81
2019-02-09T01:51:38.078Z,6.76
2019-02-09T01:52:38.015Z,6.79
2019-02-09T01:53:37.951Z,6.73
2019-02-09T01:54:37.891Z,6.79
2019-02-09T01:55:37.829Z,6.83
2019-02-09T01:56:37.768Z,6.79
2019-02-09T01:57:37.706Z,6.84
2019-02-09T01:58:37.645Z,6.84
2019-02-09T01:59:37.585Z,6.81
2019-02-09T02:00:37.523Z,6.77
2019-02-09T02:01:37.549Z,6.79
2019-02-09T02:02:44.450Z,6.87
2019-02-09T02:03:37.473Z,6.80
2019-02-09T02:04:37.278Z,6.83
2019-02-09T02:05:37.223Z,6.83
2019-02-09T02:06:37.155Z,6.81
2019-02-09T02:07:37.095Z,6.79
2019-02-09T02:08:37.032Z,6.81
2019-02-09T02:09:36.969Z,6.76
2019-02-09T02:10:36.909Z,6.80
2019-02-09T02:11:36.847Z,6.87
2019-02-09T02:12:36.787Z,6.81
2019-02-09T02:13:36.725Z,6.83
2019-02-09T02:14:36.664Z,6.79
2019-02-09T02:15:36.602Z,6.79
2019-02-09T02:16:36.542Z,6.83
2019-02-09T02:17:36.479Z,6.89
2019-02-09T02:18:36.423Z,6.81
2019-02-09T02:19:36.357Z,6.83
2019-02-09T02:20:36.296Z,6.77
2019-02-09T02:21:36.234Z,6.81
2019-02-09T02:22:36.172Z,6.80
2019-02-09T02:23:36.113Z,6.83
2019-02-09T02:24:36.050Z,6.86
2019-02-09T02:25:35.988Z,6.84
2019-02-09T02:26:35.927Z,6.84
2019-02-09T02:27:35.874Z,6.89
2019-02-09T02:28:35.806Z,6.76
2019-02-09T02:29:35.745Z,6.89
2019-02-09T02:30:35.686Z,6.80
2019-02-09T02:31:35.621Z,6.86
2019-02-09T02:32:35.559Z,6.86
2019-02-09T02:33:35.498Z,6.87
2019-02-09T02:34:35.440Z,6.87
2019-02-09T02:35:35.376Z,6.86
2019-02-09T02:36:35.315Z,6.81
2019-02-09T02:37:35.253Z,6.86
2019-02-09T02:38:35.192Z,6.91
2019-02-09T02:39:35.132Z,6.77
2019-02-09T02:40:35.070Z,6.77
2019-02-09T02:41:35.006Z,6.89
2019-02-09T02:42:34.945Z,6.89
2019-02-09T02:43:34.885Z,6.84
2019-02-09T02:44:34.824Z,6.89
2019-02-09T02:45:34.761Z,6.81
2019-02-09T02:46:34.700Z,6.83
2019-02-09T02:47:34.641Z,6.83
2019-02-09T02:48:34.579Z,6.81
2019-02-09T02:49:34.518Z,6.90
2019-02-09T02:50:34.454Z,6.84
2019-02-09T02:51:34.394Z,6.83
2019-02-09T02:52:34.338Z,6.87
2019-02-09T02:53:34.271Z,6.94
2019-02-09T02:54:34.212Z,6.89
2019-02-09T02:55:34.148Z,6.84
2019-02-09T02:56:34.088Z,6.84
2019-02-09T02:57:34.027Z,6.83
2019-02-09T02:58:33.966Z,6.89
2019-02-09T02:59:33.909Z,6.87
2019-02-09T03:00:33.890Z,6.86
2019-02-09T03:01:33.780Z,6.89
2019-02-09T03:02:33.720Z,6.87
2019-02-09T03:03:33.663Z,6.89
2019-02-09T03:04:33.599Z,6.86
2019-02-09T03:05:33.538Z,6.89
2019-02-09T03:06:33.473Z,6.86
2019-02-09T03:07:33.413Z,6.89
2019-02-09T03:08:33.352Z,6.87
2019-02-09T03:09:33.291Z,6.87
2019-02-09T03:10:33.233Z,6.86
2019-02-09T03:11:33.177Z,6.90
2019-02-09T03:12:33.108Z,6.90
2019-02-09T03:13:33.045Z,6.97
2019-02-09T03:14:32.983Z,6.90
2019-02-09T03:15:32.929Z,6.94
2019-02-09T03:16:32.861Z,6.87
2019-02-09T03:17:32.800Z,6.95
2019-02-09T03:18:32.745Z,6.94
2019-02-09T03:19:32.678Z,6.90
2019-02-09T03:20:32.624Z,6.87
2019-02-09T03:21:32.556Z,6.91
2019-02-09T03:22:32.495Z,6.91
2019-02-09T03:23:32.434Z,6.95
2019-02-09T03:24:32.381Z,6.90
2019-02-09T03:25:32.308Z,6.90
2019-02-09T03:26:32.252Z,6.97
2019-02-09T03:27:32.189Z,6.89
2019-02-09T03:28:32.126Z,6.94
2019-02-09T03:29:32.066Z,6.91
2019-02-09T03:30:45.833Z,6.97
2019-02-09T03:31:31.943Z,6.97
2019-02-09T03:32:31.884Z,6.89
2019-02-09T03:33:31.822Z,6.99
2019-02-09T03:34:31.759Z,6.95
2019-02-09T03:35:31.699Z,6.91
2019-02-09T03:36:31.639Z,6.94
2019-02-09T03:37:31.575Z,6.94
2019-02-09T03:38:31.513Z,6.90
2019-02-09T03:39:31.451Z,6.94
2019-02-09T03:40:31.390Z,6.86
2019-02-09T03:41:31.339Z,6.87
2019-02-09T03:42:31.267Z,6.98
2019-02-09T03:43:31.206Z,6.90
2019-02-09T03:44:31.144Z,6.94
2019-02-09T03:45:31.082Z,6.90
2019-02-09T03:46:31.024Z,6.89
2019-02-09T03:47:30.959Z,6.90
2019-02-09T03:48:30.902Z,6.97
2019-02-09T03:49:30.837Z,6.94
2019-02-09T03:50:30.776Z,6.99
2019-02-09T03:51:30.715Z,6.90
2019-02-09T03:52:30.656Z,6.98
2019-02-09T03:53:30.597Z,6.94
2019-02-09T03:54:30.530Z,6.97
2019-02-09T03:55:30.474Z,6.91
2019-02-09T03:56:30.416Z,6.97
2019-02-09T03:57:30.353Z,6.91
2019-02-09T03:58:30.287Z,6.94
2019-02-09T03:59:30.224Z,6.90
2019-02-09T04:00:30.168Z,6.98
2019-02-09T04:01:30.105Z,6.90
2019-02-09T04:02:30.040Z,6.91
2019-02-09T04:03:29.983Z,6.90
2019-02-09T04:04:29.919Z,6.90
2019-02-09T04:05:29.865Z,7.01
2019-02-09T04:06:29.795Z,6.87
2019-02-09T04:07:29.736Z,6.99
2019-02-09T04:08:29.673Z,6.89
2019-02-09T04:09:29.618Z,6.91
2019-02-09T04:10:29.551Z,6.97
2019-02-09T04:11:29.489Z,7.01
2019-02-09T04:12:29.428Z,6.94
2019-02-09T04:13:29.365Z,6.97
2019-02-09T04:14:29.304Z,6.97
2019-02-09T04:15:29.248Z,6.95
2019-02-09T04:16:29.182Z,6.91
2019-02-09T04:17:29.120Z,6.97
2019-02-09T04:18:29.061Z,6.90
2019-02-09T04:19:29.001Z,6.97
2019-02-09T04:20:28.937Z,6.91
2019-02-09T04:21:28.877Z,6.99
2019-02-09T04:22:28.817Z,6.91
2019-02-09T04:23:28.755Z,6.97
2019-02-09T04:24:28.693Z,6.98
2019-02-09T04:25:28.630Z,6.99
2019-02-09T04:26:28.575Z,6.99
2019-02-09T04:27:28.510Z,6.90
2019-02-09T04:28:28.450Z,6.91
2019-02-09T04:29:28.385Z,6.90
2019-02-09T04:30:28.329Z,6.97
2019-02-09T04:31:28.269Z,6.97
2019-02-09T04:32:28.207Z,6.91
2019-02-09T04:33:28.139Z,6.95
2019-02-09T04:34:28.080Z,6.97
2019-02-09T04:35:28.017Z,6.98
2019-02-09T04:36:27.961Z,6.90
2019-02-09T04:37:27.894Z,6.91
2019-02-09T04:38:27.833Z,6.94
2019-02-09T04:39:27.772Z,6.97
2019-02-09T04:40:27.725Z,7.01
2019-02-09T04:41:27.649Z,6.87
2019-02-09T04:42:27.588Z,6.94
2019-02-09T04:43:27.526Z,6.94
2019-02-09T04:44:27.473Z,6.97
2019-02-09T04:45:27.406Z,6.94
2019-02-09T04:46:27.342Z,6.95
2019-02-09T04:47:27.283Z,6.94
2019-02-09T04:48:27.223Z,6.91
2019-02-09T04:49:27.160Z,6.97
2019-02-09T04:50:27.109Z,6.97
2019-02-09T04:51:27.037Z,7.02
2019-02-09T04:52:26.976Z,6.99
2019-02-09T04:53:26.915Z,7.01
2019-02-09T04:54:26.855Z,6.95
2019-02-09T04:55:26.791Z,6.98
2019-02-09T04:56:26.730Z,6.91
2019-02-09T04:57:26.672Z,6.97
2019-02-09T04:58:26.607Z,6.98
2019-02-09T04:59:26.546Z,6.94
2019-02-09T05:00:26.487Z,6.99
2019-02-09T05:01:26.424Z,6.95
2019-02-09T05:02:26.362Z,6.99
2019-02-09T05:03:26.302Z,7.04
2019-02-09T05:04:26.243Z,6.91
2019-02-09T05:05:26.178Z,7.01
2019-02-09T05:06:26.117Z,6.94
2019-02-09T05:07:26.057Z,6.98
2019-02-09T05:08:25.995Z,6.97
2019-02-09T05:09:25.933Z,6.94
2019-02-09T05:10:25.873Z,6.94
2019-02-09T05:11:25.813Z,6.97
2019-02-09T05:12:25.750Z,7.04
2019-02-09T05:13:25.695Z,7.01
2019-02-09T05:14:25.627Z,6.95
2019-02-09T05:15:25.566Z,6.98
2019-02-09T05:16:25.506Z,7.01
2019-02-09T05:17:25.447Z,6.98
2019-02-09T05:18:25.382Z,6.97
2019-02-09T05:19:25.326Z,6.99
2019-02-09T05:20:25.516Z,6.99
2019-02-09T05:21:25.198Z,6.97
2019-02-09T05:22:25.143Z,6.90
2019-02-09T05:23:25.076Z,6.99
2019-02-09T05:24:25.014Z,6.91
2019-02-09T05:25:24.966Z,6.97
2019-02-09T05:26:24.891Z,6.94
2019-02-09T05:27:24.831Z,6.94
2019-02-09T05:28:24.769Z,6.94
2019-02-09T05:29:24.707Z,6.97
2019-02-09T05:30:24.650Z,6.95
2019-02-09T05:31:24.588Z,6.95
2019-02-09T05:32:24.524Z,7.04
2019-02-09T05:33:24.463Z,6.97
2019-02-09T05:34:24.403Z,6.97
2019-02-09T05:35:24.344Z,6.99
2019-02-09T05:36:24.283Z,6.98
2019-02-09T05:37:24.219Z,6.99
2019-02-09T05:38:24.158Z,6.98
2019-02-09T05:39:24.096Z,6.95
2019-02-09T05:40:24.039Z,7.05
2019-02-09T05:41:23.975Z,6.95
2019-02-09T05:42:23.913Z,6.99
2019-02-09T05:43:23.851Z,6.98
2019-02-09T05:44:23.789Z,6.95
2019-02-09T05:45:23.728Z,6.99
2019-02-09T05:46:23.676Z,6.94
2019-02-09T05:47:23.609Z,7.04
2019-02-09T05:48:23.547Z,6.95
2019-02-09T05:49:23.483Z,6.97
2019-02-09T05:50:23.425Z,6.97
2019-02-09T05:51:23.363Z,6.97
2019-02-09T05:52:23.313Z,6.91
2019-02-09T05:53:23.239Z,6.98
2019-02-09T05:54:23.176Z,6.95
2019-02-09T05:55:23.129Z,6.97
2019-02-09T05:56:23.055Z,6.97
2019-02-09T05:57:22.992Z,6.95
2019-02-09T05:58:22.931Z,6.98
2019-02-09T05:59:22.896Z,6.97
2019-02-09T06:00:22.810Z,6.95
2019-02-09T06:01:31.629Z,6.95
2019-02-09T06:02:22.687Z,6.98
2019-02-09T06:03:22.625Z,6.98
2019-02-09T06:04:22.567Z,6.95
2019-02-09T06:05:22.505Z,6.95
2019-02-09T06:06:22.441Z,6.94
2019-02-09T06:07:22.380Z,6.99
2019-02-09T06:08:22.326Z,6.95
2019-02-09T06:09:22.257Z,6.98
2019-02-09T06:10:22.196Z,6.99
2019-02-09T06:11:22.136Z,6.99
2019-02-09T06:12:22.075Z,7.04
2019-02-09T06:13:22.021Z,6.98
2019-02-09T06:14:21.952Z,6.95
2019-02-09T06:15:21.892Z,6.94
2019-02-09T06:16:21.829Z,6.97
2019-02-09T06:17:21.767Z,6.98
2019-02-09T06:18:21.706Z,7.01
2019-02-09T06:19:21.645Z,6.91
2019-02-09T06:20:21.586Z,6.95
2019-02-09T06:21:21.522Z,6.99
2019-02-09T06:22:21.463Z,6.99
2019-02-09T06:23:21.400Z,7.01
2019-02-09T06:24:21.339Z,6.95
2019-02-09T06:25:21.277Z,6.95
2019-02-09T06:26:21.215Z,6.97
2019-02-09T06:27:21.163Z,6.97
2019-02-09T06:28:21.099Z,6.98
2019-02-09T06:29:21.032Z,6.98
2019-02-09T06:30:20.971Z,6.99
2019-02-09T06:31:20.910Z,6.95
2019-02-09T06:32:20.850Z,6.98
2019-02-09T06:33:20.787Z,6.97
2019-02-09T06:34:20.725Z,6.97
2019-02-09T06:35:20.666Z,7.02
2019-02-09T06:36:20.604Z,6.98
2019-02-09T06:37:20.542Z,6.90
2019-02-09T06:38:20.483Z,6.94
2019-02-09T06:39:20.421Z,6.95
2019-02-09T06:40:20.359Z,6.97
2019-02-09T06:41:20.297Z,6.97
2019-02-09T06:42:20.235Z,6.97
2019-02-09T06:43:20.174Z,7.02
2019-02-09T06:44:20.115Z,6.98
2019-02-09T06:45:20.053Z,6.97
2019-02-09T06:46:19.991Z,6.91
2019-02-09T06:47:19.932Z,6.97
2019-02-09T06:48:19.869Z,7.05
2019-02-09T06:49:19.808Z,6.95
2019-02-09T06:50:19.746Z,6.95
2019-02-09T06:51:19.686Z,6.98
2019-02-09T06:52:19.624Z,6.97
2019-02-09T06:53:19.567Z,7.02
2019-02-09T06:54:19.501Z,7.02
2019-02-09T06:55:19.439Z,6.99
2019-02-09T06:56:19.417Z,7.04
2019-02-09T06:57:19.966Z,6.95
2019-02-09T06:58:19.257Z,7.01
2019-02-09T06:59:19.194Z,7.04
2019-02-09T07:00:19.146Z,6.98
2019-02-09T07:01:19.075Z,6.97
2019-02-09T07:02:19.011Z,7.08
2019-02-09T07:03:18.950Z,6.94
2019-02-09T07:04:18.890Z,7.04
2019-02-09T07:05:18.838Z,7.04
2019-02-09T07:06:18.768Z,6.97
2019-02-09T07:07:18.704Z,7.08
2019-02-09T07:08:18.644Z,7.04
2019-02-09T07:09:18.603Z,6.97
2019-02-09T07:10:18.522Z,6.90
2019-02-09T07:11:18.460Z,6.94
2019-02-09T07:12:18.400Z,6.95
2019-02-09T07:13:18.352Z,6.98
2019-02-09T07:14:18.276Z,6.94
2019-02-09T07:15:18.216Z,7.08
2019-02-09T07:16:18.159Z,7.01
2019-02-09T07:17:18.092Z,7.07
2019-02-09T07:18:18.031Z,7.08
2019-02-09T07:19:17.970Z,7.09
2019-02-09T07:20:17.909Z,6.99
2019-02-09T07:21:17.847Z,7.09
2019-02-09T07:22:17.786Z,7.09
2019-02-09T07:23:17.725Z,7.02
2019-02-09T07:24:17.664Z,7.05
2019-02-09T07:25:17.604Z,7.12
2019-02-09T07:26:17.541Z,7.08
2019-02-09T07:27:17.480Z,7.05
2019-02-09T07:28:17.419Z,7.08
2019-02-09T07:29:17.358Z,7.13
2019-02-09T07:30:17.299Z,7.04
2019-02-09T07:31:17.236Z,7.09
2019-02-09T07:32:17.178Z,7.09
2019-02-09T07:33:17.114Z,7.09
2019-02-09T07:34:17.053Z,7.12
2019-02-09T07:35:16.997Z,7.07
2019-02-09T07:36:16.930Z,7.04
2019-02-09T07:37:16.871Z,7.07
2019-02-09T07:38:16.810Z,7.04
2019-02-09T07:39:16.746Z,7.13
2019-02-09T07:40:16.685Z,7.05
2019-02-09T07:41:16.628Z,7.13
2019-02-09T07:42:16.564Z,7.15
2019-02-09T07:43:16.510Z,7.08
2019-02-09T07:44:16.441Z,7.09
2019-02-09T07:45:16.377Z,7.08
2019-02-09T07:46:16.319Z,7.12
2019-02-09T07:47:16.256Z,7.07
2019-02-09T07:48:16.195Z,7.08
2019-02-09T07:49:16.133Z,7.12
2019-02-09T07:50:16.075Z,7.09
2019-02-09T07:51:16.010Z,7.05
2019-02-09T07:52:15.950Z,7.16
2019-02-09T07:53:15.890Z,7.04
2019-02-09T07:54:15.826Z,7.08
2019-02-09T07:55:15.767Z,7.12
2019-02-09T07:56:15.704Z,7.17
2019-02-09T07:57:15.650Z,7.24
2019-02-09T07:58:15.582Z,7.24
2019-02-09T07:59:15.521Z,7.20
2019-02-09T08:00:15.462Z,7.23
2019-02-09T08:01:15.401Z,7.22
2019-02-09T08:02:15.359Z,7.23
2019-02-09T08:03:15.282Z,7.23
2019-02-09T08:04:15.225Z,7.20
2019-02-09T08:05:15.154Z,7.20
2019-02-09T08:06:15.108Z,7.20
2019-02-09T08:07:15.058Z,7.20
2019-02-09T08:08:14.989Z,7.22
2019-02-09T08:09:14.917Z,7.09
2019-02-09T08:10:14.851Z,7.20
2019-02-09T08:11:14.791Z,7.23
2019-02-09T08:12:14.739Z,7.20
2019-02-09T08:13:14.673Z,7.20
2019-02-09T08:14:14.614Z,7.23
2019-02-09T08:15:14.544Z,7.26
2019-02-09T08:16:14.483Z,7.27
2019-02-09T08:17:14.425Z,7.20
2019-02-09T08:18:14.386Z,7.20
2019-02-09T08:19:14.311Z,7.19
2019-02-09T08:20:14.248Z,7.23
2019-02-09T08:21:14.173Z,7.20
2019-02-09T08:22:14.148Z,7.23
2019-02-09T08:23:14.060Z,7.26
2019-02-09T08:24:13.992Z,7.22
2019-02-09T08:25:13.933Z,7.26
2019-02-09T08:26:13.876Z,7.24
2019-02-09T08:27:13.812Z,7.38
2019-02-09T08:28:13.763Z,7.34
2019-02-09T08:29:13.695Z,7.31
2019-02-09T08:30:13.623Z,7.34
2019-02-09T08:31:13.563Z,7.32
2019-02-09T08:32:13.504Z,7.38
2019-02-09T08:33:13.444Z,7.31
2019-02-09T08:34:13.379Z,7.29
2019-02-09T08:35:13.319Z,7.32
2019-02-09T08:36:13.260Z,7.24
2019-02-09T08:37:13.194Z,7.26
2019-02-09T08:38:13.134Z,7.41
2019-02-09T08:39:13.076Z,7.29
2019-02-09T08:40:13.012Z,7.31
2019-02-09T08:41:12.951Z,7.35
2019-02-09T08:42:12.891Z,7.37
2019-02-09T08:43:12.830Z,7.38
2019-02-09T08:44:12.773Z,7.37
2019-02-09T08:45:12.719Z,7.32
2019-02-09T08:46:12.649Z,7.29
2019-02-09T08:47:12.598Z,7.34
2019-02-09T08:48:12.523Z,7.37
2019-02-09T08:49:12.461Z,7.41
2019-02-09T08:50:12.401Z,7.41
2019-02-09T08:51:12.341Z,7.40
2019-02-09T08:52:12.280Z,7.35
2019-02-09T08:53:12.217Z,7.40
2019-02-09T08:54:12.161Z,7.31
2019-02-09T08:55:12.103Z,7.40
2019-02-09T08:56:12.038Z,7.41
2019-02-09T08:57:11.992Z,7.42
2019-02-09T08:58:11.912Z,7.38
2019-02-09T08:59:11.858Z,7.45
2019-02-09T09:00:11.790Z,7.32
2019-02-09T09:01:11.731Z,7.37
2019-02-09T09:02:11.670Z,7.35
2019-02-09T09:03:11.609Z,7.44
2019-02-09T09:04:11.547Z,7.37
2019-02-09T09:05:11.485Z,7.38
2019-02-09T09:06:11.425Z,7.42
2019-02-09T09:07:11.367Z,7.41
2019-02-09T09:08:11.303Z,7.40
2019-02-09T09:09:11.241Z,7.41
2019-02-09T09:10:11.179Z,7.44
2019-02-09T09:11:11.120Z,7.41
2019-02-09T09:12:11.057Z,7.42
2019-02-09T09:13:10.997Z,7.44
2019-02-09T09:14:10.935Z,7.42
2019-02-09T09:15:10.874Z,7.44
2019-02-09T09:16:10.822Z,7.42
2019-02-09T09:17:10.757Z,7.41
2019-02-09T09:18:10.691Z,7.44
2019-02-09T09:19:10.629Z,7.49
2019-02-09T09:20:10.592Z,7.50
2019-02-09T09:21:10.508Z,7.44
2019-02-09T09:22:10.446Z,7.49
2019-02-09T09:23:10.389Z,7.50
2019-02-09T09:24:10.324Z,7.53
2019-02-09T09:25:10.262Z,7.53
2019-02-09T09:26:10.203Z,7.49
2019-02-09T09:27:10.147Z,7.58
2019-02-09T09:28:10.082Z,7.58
2019-02-09T09:29:10.023Z,7.53
2019-02-09T09:30:09.961Z,7.56
2019-02-09T09:31:09.898Z,7.53
2019-02-09T09:32:09.840Z,7.62
2019-02-09T09:33:09.774Z,7.53
2019-02-09T09:34:09.717Z,7.52
2019-02-09T09:35:09.658Z,7.55
2019-02-09T09:36:09.623Z,7.56
2019-02-09T09:37:09.531Z,7.55
2019-02-09T09:38:09.469Z,7.63
2019-02-09T09:39:09.409Z,7.53
2019-02-09T09:40:09.351Z,7.59
2019-02-09T09:41:09.298Z,7.53
2019-02-09T09:42:09.225Z,7.63
2019-02-09T09:43:09.165Z,7.55
2019-02-09T09:44:09.105Z,7.60
2019-02-09T09:45:09.042Z,7.55
2019-02-09T09:46:08.981Z,7.63
2019-02-09T09:47:08.927Z,7.58
2019-02-09T09:48:08.860Z,7.58
2019-02-09T09:49:08.802Z,7.63
2019-02-09T09:50:08.738Z,7.60
2019-02-09T09:51:08.676Z,7.62
2019-02-09T09:52:08.616Z,7.60
2019-02-09T09:53:08.559Z,7.60
2019-02-09T09:54:08.512Z,7.69
2019-02-09T09:55:08.437Z,7.60
2019-02-09T09:56:08.372Z,7.62
2019-02-09T09:57:08.313Z,7.59
2019-02-09T09:58:08.251Z,7.63
2019-02-09T09:59:08.190Z,7.60
2019-02-09T10:00:08.127Z,7.62
2019-02-09T10:01:08.071Z,7.62
2019-02-09T10:02:08.014Z,7.74
2019-02-09T10:03:07.954Z,7.60
2019-02-09T10:04:07.893Z,7.66
2019-02-09T10:05:07.830Z,7.62
2019-02-09T10:06:07.772Z,7.62
2019-02-09T10:07:07.704Z,7.62
2019-02-09T10:08:07.640Z,7.60
2019-02-09T10:09:07.580Z,7.66
2019-02-09T10:10:07.520Z,7.60
2019-02-09T10:11:07.459Z,7.60
2019-02-09T10:12:07.401Z,7.67
2019-02-09T10:13:07.336Z,7.66
2019-02-09T10:14:08.951Z,7.60
2019-02-09T10:15:07.212Z,7.60
2019-02-09T10:16:07.153Z,7.58
2019-02-09T10:17:07.091Z,7.67
2019-02-09T10:18:07.035Z,7.66
2019-02-09T10:19:06.977Z,7.66
2019-02-09T10:20:06.912Z,7.71
2019-02-09T10:21:06.852Z,7.63
2019-02-09T10:22:06.787Z,7.63
2019-02-09T10:23:06.729Z,7.66
2019-02-09T10:24:06.677Z,7.71
2019-02-09T10:25:06.603Z,7.71
2019-02-09T10:26:06.544Z,7.63
2019-02-09T10:27:06.484Z,7.59
2019-02-09T10:28:06.422Z,7.66
2019-02-09T10:29:06.367Z,7.62
2019-02-09T10:30:06.301Z,7.72
2019-02-09T10:31:06.248Z,7.67
2019-02-09T10:32:06.180Z,7.60
2019-02-09T10:33:06.116Z,7.62
2019-02-09T10:34:06.059Z,7.75
2019-02-09T10:35:05.995Z,7.67
2019-02-09T10:36:05.937Z,7.72
2019-02-09T10:37:05.873Z,7.72
2019-02-09T10:38:05.812Z,7.72
2019-02-09T10:39:05.752Z,7.59
2019-02-09T10:40:05.696Z,7.63
2019-02-09T10:41:05.633Z,7.66
2019-02-09T10:42:05.569Z,7.72
2019-02-09T10:43:05.508Z,7.72
2019-02-09T10:44:05.452Z,7.71
2019-02-09T10:45:05.390Z,7.71
2019-02-09T10:46:05.325Z,7.72
2019-02-09T10:47:05.270Z,7.69
2019-02-09T10:48:05.204Z,7.75
2019-02-09T10:49:05.142Z,7.72
2019-02-09T10:50:05.082Z,7.74
2019-02-09T10:51:05.033Z,7.77
2019-02-09T10:52:04.960Z,7.67
2019-02-09T10:53:04.901Z,7.75
2019-02-09T10:54:04.840Z,7.75
2019-02-09T10:55:04.777Z,7.82
2019-02-09T10:56:04.718Z,7.72
2019-02-09T10:57:04.659Z,7.67
2019-02-09T10:58:04.597Z,7.79
2019-02-09T10:59:04.535Z,7.74
2019-02-09T11:00:04.475Z,7.78
2019-02-09T11:01:04.415Z,7.84
2019-02-09T11:02:04.356Z,7.72
2019-02-09T11:03:04.294Z,7.81
2019-02-09T11:04:04.233Z,7.74
2019-02-09T11:05:04.169Z,7.78
2019-02-09T11:06:04.109Z,7.75
2019-02-09T11:07:04.048Z,7.78
2019-02-09T11:08:03.989Z,7.72
2019-02-09T11:09:03.926Z,7.75
2019-02-09T11:10:03.870Z,7.77
2019-02-09T11:11:03.806Z,7.79
2019-02-09T11:12:03.748Z,7.87
2019-02-09T11:13:03.683Z,7.75
2019-02-09T11:14:03.624Z,7.78
2019-02-09T11:15:03.561Z,7.79
2019-02-09T11:16:03.503Z,7.81
2019-02-09T11:17:03.445Z,7.75
2019-02-09T11:18:03.379Z,7.82
2019-02-09T11:19:03.318Z,7.81
2019-02-09T11:20:03.257Z,7.85
2019-02-09T11:21:03.205Z,7.79
2019-02-09T11:22:03.137Z,7.85
2019-02-09T11:23:03.078Z,7.84
2019-02-09T11:24:03.014Z,7.84
2019-02-09T11:25:02.955Z,7.79
2019-02-09T11:26:02.901Z,7.82
2019-02-09T11:27:02.837Z,7.85
2019-02-09T11:28:02.777Z,7.81
2019-02-09T11:29:02.710Z,7.82
2019-02-09T11:30:02.648Z,7.85
2019-02-09T11:31:02.592Z,7.89
2019-02-09T11:32:02.530Z,7.84
2019-02-09T11:33:02.742Z,7.82
2019-02-09T11:34:02.408Z,7.87
2019-02-09T11:35:02.345Z,7.87
2019-02-09T11:36:02.286Z,7.85
2019-02-09T11:37:02.224Z,7.89
2019-02-09T11:38:02.164Z,7.84
2019-02-09T11:39:02.102Z,7.85
2019-02-09T11:40:02.042Z,7.87
2019-02-09T11:41:01.981Z,7.93
2019-02-09T11:42:01.923Z,7.87
2019-02-09T11:43:01.859Z,7.82
2019-02-09T11:44:01.800Z,7.84
2019-02-09T11:45:01.740Z,7.90
2019-02-09T11:46:01.679Z,7.87
2019-02-09T11:47:01.617Z,7.92
2019-02-09T11:48:01.562Z,7.94
2019-02-09T11:49:01.495Z,7.97
2019-02-09T11:50:01.442Z,7.92
2019-02-09T11:51:01.385Z,7.89
2019-02-09T11:52:01.318Z,7.93
2019-02-09T11:53:01.987Z,7.93
2019-02-09T11:54:01.191Z,7.93
2019-02-09T11:55:01.133Z,7.85
2019-02-09T11:56:01.071Z,8.00
2019-02-09T11:57:01.098Z,7.90
2019-02-09T11:58:00.949Z,7.93
2019-02-09T11:59:00.888Z,7.90
2019-02-09T12:00:00.829Z,7.85
2019-02-09T12:01:00.767Z,7.87
2019-02-09T12:02:00.980Z,7.92
2019-02-09T12:03:05.384Z,7.92
2019-02-09T12:04:00.585Z,7.96
2019-02-09T12:05:00.555Z,7.89
2019-02-09T12:06:00.464Z,7.92
2019-02-09T12:07:00.403Z,7.90
2019-02-09T12:08:00.345Z,7.94
2019-02-09T12:09:00.304Z,7.93
2019-02-09T12:10:00.275Z,7.96
2019-02-09T12:11:00.161Z,7.92
2019-02-09T12:12:00.100Z,7.94
2019-02-09T12:13:00.040Z,7.94
2019-02-09T12:13:59.977Z,7.97
2019-02-09T12:14:59.920Z,8.00
2019-02-09T12:15:59.857Z,7.94
2019-02-09T12:16:59.814Z,7.92
2019-02-09T12:17:59.747Z,7.92
2019-02-09T12:18:59.687Z,7.97
2019-02-09T12:19:59.616Z,7.99
2019-02-09T12:20:59.555Z,7.96
2019-02-09T12:21:59.492Z,7.96
2019-02-09T12:22:59.434Z,8.00
2019-02-09T12:23:59.371Z,7.94
2019-02-09T12:24:59.310Z,7.94
2019-02-09T12:25:59.255Z,7.97
2019-02-09T12:26:59.190Z,8.00
2019-02-09T12:27:59.133Z,8.03
2019-02-09T12:28:59.068Z,7.97
2019-02-09T12:29:59.009Z,8.03
2019-02-09T12:30:58.946Z,8.02
2019-02-09T12:31:58.887Z,8.03
2019-02-09T12:32:58.826Z,8.07
2019-02-09T12:33:58.765Z,8.02
2019-02-09T12:34:58.703Z,8.08
2019-02-09T12:35:58.644Z,8.00
2019-02-09T12:36:58.583Z,8.04
2019-02-09T12:37:58.521Z,8.07
2019-02-09T12:38:58.462Z,8.07
2019-02-09T12:39:58.405Z,8.08
2019-02-09T12:40:58.340Z,8.08
2019-02-09T12:41:58.294Z,8.10
2019-02-09T12:42:58.226Z,8.02
2019-02-09T12:43:58.161Z,8.10
2019-02-09T12:44:58.100Z,8.12
2019-02-09T12:45:58.041Z,8.12
2019-02-09T12:46:57.979Z,8.08
2019-02-09T12:47:57.920Z,8.08
2019-02-09T12:48:57.869Z,8.12
2019-02-09T12:49:57.796Z,8.12
2019-02-09T12:50:57.735Z,8.12
2019-02-09T12:51:57.718Z,8.12
2019-02-09T12:52:57.624Z,8.11
2019-02-09T12:53:57.574Z,8.10
2019-02-09T12:54:57.494Z,8.20
2019-02-09T12:55:57.435Z,8.18
2019-02-09T12:56:57.372Z,8.14
2019-02-09T12:57:57.321Z,8.26
2019-02-09T12:58:57.266Z,8.21
2019-02-09T12:59:57.209Z,8.18
2019-02-09T13:00:57.135Z,8.18
2019-02-09T13:01:57.067Z,8.21
2019-02-09T13:02:57.014Z,8.22
2019-02-09T13:03:56.947Z,8.21
2019-02-09T13:04:56.888Z,8.15
2019-02-09T13:05:56.825Z,8.21
2019-02-09T13:06:56.773Z,8.20
2019-02-09T13:07:56.705Z,8.20
2019-02-09T13:08:56.654Z,8.12
2019-02-09T13:09:56.582Z,8.14
2019-02-09T13:10:56.527Z,8.26
2019-02-09T13:11:56.468Z,8.21
2019-02-09T13:12:56.403Z,8.17
2019-02-09T13:13:56.341Z,8.25
2019-02-09T13:14:56.280Z,8.21
2019-02-09T13:15:56.219Z,8.22
2019-02-09T13:16:56.161Z,8.22
2019-02-09T13:17:56.106Z,8.20